• Join FlightAware (Why Join?)
  • Login
  • US Flag 
02:14PM EDT


 

Airport Tracker/Info


-or-


 

Live Flight TrackerFlight Track Log ✈ SWA641 ✈ 24-Apr-2013 ✈ KIAD - KMDW

Flight Track Log - Related Links

Times and Time Zones

All times are in EDT time to prevent confusion due to time zone crossing. See the SWA641 flight status page for this flight to view local times or setup timezone preferences in your user account.

Time Position Orientation Groundspeed Altitude Reporting Facility
EDT Latitude Longitude Course Direction KTS MPH feet Rate Location/Type
06:09AM 38.9333 -77.5500 288° West 187 215 3,000  Level Potomac TRACON
06:11AM 38.9081 -77.6617 254° West 226 260 5,000 1,620 Climbing Washington Center
06:12AM 38.8919 -77.7467 256° West 245 282 7,300 2,460 Climbing Washington Center
06:13AM 38.8819 -77.8397 262° West 262 302 10,000 2,100 Climbing Washington Center
06:14AM 38.8886 -77.9333 275° West 277 319 11,600 2,640 Climbing Washington Center
06:15AM 38.9234 -78.1267 288° West  Level FlightAware Approximate
06:15AM 38.9008 -78.0483 278° West 305 351 15,300  Level Washington Center
06:16AM 38.9128 -78.1689 277° West 330 380 18,400 2,820 Climbing Washington Center
06:17AM 38.9247 -78.2972 277° West 354 407 21,000 2,760 Climbing Washington Center
06:18AM 38.9383 -78.4311 277° West 371 427 24,000 2,700 Climbing Washington Center
06:19AM 38.9517 -78.5678 277° West 383 441 26,500 2,280 Climbing Washington Center
06:20AM 38.9647 -78.7125 277° West 396 456 28,600 1,860 Climbing Washington Center
06:21AM 38.9753 -78.8600 275° West 407 468 30,300 2,100 Climbing Washington Center
06:22AM 38.9881 -79.0047 277° West 412 474 32,800 2,400 Climbing Washington Center
06:23AM 38.9983 -79.1494 275° West 412 474 35,100 2,160 Climbing Washington Center
06:24AM 39.0108 -79.2864 277° West 405 466 37,200 1,560 Climbing Washington Center
06:25AM 39.0214 -79.4231 276° West 398 458 38,300 1,200 Climbing Washington Center
06:26AM 39.0314 -79.5600 275° West 392 451 39,700 600 Climbing Washington Center
06:28AM 39.0456 -79.8067 274° West 383 441 40,000 60 Climbing Indianapolis Center
06:29AM 39.0550 -79.9400 275° West 386 444 40,000  Level Indianapolis Center
06:30AM 39.0642 -80.0717 275° West 382 440 40,000  Level Indianapolis Center
06:31AM 39.0747 -80.2039 276° West 381 438 40,000  Level Indianapolis Center
06:32AM 39.0819 -80.3389 274° West 379 436 40,000  Level Indianapolis Center
06:33AM 39.0903 -80.4703 275° West 372 428 40,000  Level Indianapolis Center
06:34AM 39.1336 -80.6181 291° West 373 429 40,000  Level Indianapolis Center
06:35AM 39.1817 -80.7342 298° West 369 425 40,000  Level Indianapolis Center
06:36AM 39.2322 -80.8503 299° West 372 428 40,000  Level Indianapolis Center
06:37AM 39.2825 -80.9664 299° West 372 428 40,000  Level Indianapolis Center
06:38AM 39.3328 -81.0836 299° West 375 432 40,000  Level Indianapolis Center
06:39AM 39.3819 -81.1978 299° West 369 425 40,000  Level Indianapolis Center
06:40AM 39.4319 -81.3156 299° West 373 429 40,000  Level Indianapolis Center
06:41AM 39.4817 -81.4344 298° West 376 433 40,000  Level Indianapolis Center
06:42AM 39.5311 -81.5519 299° West 375 432 40,000  Level Indianapolis Center
06:43AM 39.5814 -81.6708 299° West 376 433 40,000  Level Indianapolis Center
06:44AM 39.6314 -81.7892 299° West 375 432 40,000  Level Indianapolis Center
06:45AM 39.6817 -81.9089 299° West 378 435 40,000  Level Indianapolis Center
06:46AM 39.7342 -82.0372 298° West 376 433 40,000  Level Indianapolis Center
06:47AM 39.7847 -82.1578 299° West 378 435 40,000  Level Indianapolis Center
06:48AM 39.8358 -82.2800 299° West 381 438 40,000  Level Indianapolis Center
06:49AM 39.8856 -82.4019 298° West 379 436 40,000  Level Indianapolis Center
06:50AM 39.9356 -82.5228 298° West 376 433 40,000  Level Indianapolis Center
06:51AM 39.9844 -82.6442 298° West 377 434 40,000  Level Indianapolis Center
06:52AM 40.0347 -82.7664 298° West 379 436 40,000  Level Indianapolis Center
06:53AM 40.0844 -82.8883 298° West 381 438 40,000  Level Indianapolis Center
06:54AM 40.1331 -83.0089 298° West 376 433 40,000  Level Indianapolis Center
06:55AM 40.1808 -83.1294 297° West 373 429 40,000  Level Indianapolis Center
06:56AM 40.2289 -83.2500 298° West 373 429 40,000  Level Indianapolis Center
06:57AM 40.2781 -83.3722 298° West 378 435 40,000 -480 Level Indianapolis Center
06:58AM 40.3275 -83.4953 298° West 380 437 39,100 -900 Descending Indianapolis Center
06:59AM 40.3772 -83.6219 297° West 384 442 38,200 -1,020 Descending Indianapolis Center
07:00AM 40.4367 -83.7722 297° West 394 453 37,100 -1,140 Descending Indianapolis Center
07:01AM 40.4864 -83.9003 297° West 392 451 36,000 -1,020 Descending Indianapolis Center
07:02AM 40.5350 -84.0236 297° West 381 438 35,100 -1,020 Descending Indianapolis Center
07:03AM 40.5831 -84.1492 297° West 381 438 34,000 -1,020 Descending Indianapolis Center
07:04AM 40.6339 -84.2778 298° West 391 450 33,100 -1,020 Descending Indianapolis Center
07:05AM 40.6828 -84.4061 297° West 390 449 32,000 -1,020 Descending Indianapolis Center
07:06AM 40.7031 -84.4594 297° West 388 447 31,600 -960 Descending Chicago Center
07:07AM 40.7506 -84.5819 297° West 380 437 30,600 -840 Descending Chicago Center
07:08AM 40.7967 -84.7042 297° West 375 432 30,000 -540 Descending Chicago Center
07:09AM 40.8519 -84.8222 302° West 382 440 29,600 -720 Descending Chicago Center
07:10AM 40.9161 -84.9325 308° West 382 440 28,600 -1,020 Descending Chicago Center
07:11AM 40.9783 -85.0431 307° West 377 434 27,600 -1,020 Descending Chicago Center
07:12AM 41.0406 -85.1531 307° West 374 430 26,600 -1,140 Descending Chicago Center
07:13AM 41.1131 -85.2839 306° West 368 423 25,400 -1,200 Descending Chicago Center
07:14AM 41.1733 -85.3906 307° West 363 418 24,300 -1,080 Descending Chicago Center
07:15AM 41.2308 -85.4964 306° West 354 407 23,300 -1,020 Descending Chicago Center
07:16AM 41.2872 -85.5967 307° West 339 390 22,300 -1,020 Descending Chicago Center
07:17AM 41.3422 -85.6964 306° West 332 382 21,300 -1,020 Descending Chicago Center
07:18AM 41.3967 -85.7950 306° West 329 379 20,300 -960 Descending Chicago Center
07:19AM 41.4492 -85.8897 307° West 318 366 19,400 -960 Descending Chicago Center
07:20AM 41.5044 -85.9919 306° West 335 386 18,400 -1,440 Descending Chicago Center
07:21AM 41.5253 -86.0992 285° West 299 344 16,500 -1,920 Descending Chicago Center
07:22AM 41.5239 -86.2053 269° West 288 331 14,500 -2,040 Descending Chicago Center
07:23AM 41.5233 -86.3083 270° West 280 322 12,400 -1,740 Descending Chicago Center
07:24AM 41.5222 -86.4092 269° West 273 314 11,000 -1,200 Descending Chicago Center
07:25AM 41.5217 -86.5150 270° West 284 327 10,000 -540 Descending Chicago Center
07:26AM 41.5206 -86.6269 269° West 255 293 10,000  Level Chicago Center
07:27AM 41.5206 -86.7186 270° West 248 285 10,000  Level Chicago Center
07:28AM 41.5194 -86.8142 269° West 247 284 10,000 -180 Level Chicago Center
07:29AM 41.5186 -86.9061 269° West 249 287 9,700 -900 Descending Chicago Center
07:30AM 41.5175 -86.9969 269° West 247 284 8,200 -1,620 Descending Chicago Center
07:31AM 41.5164 -87.0950 269° West 263 303 6,400 -1,080 Descending Chicago Center
07:32AM 41.5256 -87.1867 278° West 255 293 6,000 -420 Descending Chicago Center
07:33AM 41.5500 -87.2500 297° West 247 284 5,700 -600 Descending Chicago TRACON
07:35AM 41.6167 -87.4333 296° West 231 266 4,400 -420 Descending Chicago TRACON
07:36AM 41.6333 -87.5000 289° West 220 253 4,400 -180 Level Chicago TRACON
07:37AM 41.6667 -87.5667 304° West 207 238 4,100 -480 Descending Chicago TRACON
07:37AM 41.6656 -87.5864 266° West 221 254 3,900 -960 Descending Chicago Center
07:38AM 41.7042 -87.6381 315° West 208 239 2,900 -1,080 Descending Chicago Center
07:39AM 41.7333 -87.6667 324° Northwest 157 181 2,100 -900 Descending Chicago TRACON
07:40AM 41.7500 -87.7167 294° West 119 137 1,400 -660 Descending Chicago TRACON
07:43AM 41.7833 -87.7500 North  Level FlightAware Approximate